createdAt,value
2023-02-28T00:01:30.763Z,43.60
2023-02-28T00:03:58.921Z,38.80
2023-02-28T00:06:27.864Z,42.70
2023-02-28T00:08:56.273Z,43.80
2023-02-28T00:11:24.456Z,42.50
2023-02-28T00:13:53.102Z,42.50
2023-02-28T00:16:23.422Z,40.30
2023-02-28T00:18:52.026Z,41.50
2023-02-28T00:21:21.027Z,39.70
2023-02-28T00:23:49.426Z,37.70
2023-02-28T00:26:18.660Z,36.10
2023-02-28T00:28:49.527Z,38.80
2023-02-28T00:31:17.358Z,42.20
2023-02-28T00:33:45.130Z,43.60
2023-02-28T00:36:12.935Z,41.60
2023-02-28T00:38:41.879Z,36.70
2023-02-28T00:41:10.435Z,42.40
2023-02-28T00:43:40.418Z,42.30
2023-02-28T00:46:08.717Z,38.90
2023-02-28T00:48:37.487Z,42.20
2023-02-28T00:51:05.640Z,42.30
2023-02-28T00:53:34.542Z,41.00
2023-02-28T00:56:02.700Z,41.10
2023-02-28T00:58:31.476Z,45.40
2023-02-28T01:00:59.402Z,40.90
2023-02-28T01:03:27.241Z,44.10
2023-02-28T01:05:55.860Z,44.90
2023-02-28T01:08:23.623Z,47.30
2023-02-28T01:10:52.512Z,46.60
2023-02-28T01:13:21.738Z,47.10
2023-02-28T01:15:56.326Z,49.30
2023-02-28T01:18:25.653Z,43.70
2023-02-28T01:20:54.239Z,43.80
2023-02-28T01:23:24.545Z,46.60
2023-02-28T01:25:53.336Z,46.40
2023-02-28T01:28:21.655Z,45.60
2023-02-28T01:30:51.487Z,44.10
2023-02-28T01:33:20.179Z,41.20
2023-02-28T01:35:48.259Z,45.80
2023-02-28T01:38:22.589Z,48.70
2023-02-28T01:40:51.892Z,47.80
2023-02-28T01:43:27.605Z,42.70
2023-02-28T01:45:57.628Z,45.10
2023-02-28T01:48:32.624Z,47.90
2023-02-28T01:51:06.237Z,47.10
2023-02-28T01:53:38.654Z,43.20
2023-02-28T01:56:10.407Z,47.50
2023-02-28T01:58:39.418Z,48.30
2023-02-28T02:01:07.262Z,60.10
2023-02-28T02:03:36.727Z,58.80
2023-02-28T02:06:05.184Z,53.70
2023-02-28T02:08:33.134Z,45.10
2023-02-28T02:11:02.808Z,45.60
2023-02-28T02:13:40.188Z,41.80
2023-02-28T02:16:27.131Z,46.50
2023-02-28T02:18:57.493Z,46.00
2023-02-28T02:21:44.555Z,50.00
2023-02-28T02:24:15.188Z,58.50
2023-02-28T02:27:03.908Z,66.60
2023-02-28T02:29:54.989Z,73.80
2023-02-28T02:32:50.683Z,67.40
2023-02-28T02:35:59.852Z,77.60
2023-02-28T02:38:36.646Z,73.30
2023-02-28T02:41:25.954Z,71.10
2023-02-28T02:44:20.246Z,77.20
2023-02-28T02:49:25.645Z,67.40
2023-02-28T02:51:56.316Z,77.40
2023-02-28T02:54:34.652Z,88.50
2023-02-28T02:57:09.749Z,84.70
2023-02-28T02:59:40.662Z,103.60
2023-02-28T03:02:13.799Z,96.60
2023-02-28T03:04:50.329Z,74.20
2023-02-28T03:07:18.292Z,68.50
2023-02-28T03:09:57.020Z,62.20
2023-02-28T03:12:33.524Z,60.60
2023-02-28T03:15:22.668Z,58.40
2023-02-28T03:18:12.657Z,54.60
2023-02-28T03:21:19.258Z,60.40
2023-02-28T03:23:54.641Z,56.30
2023-02-28T03:26:28.455Z,55.20
2023-02-28T03:29:24.664Z,58.00
2023-02-28T03:32:22.753Z,60.50
2023-02-28T03:35:01.746Z,53.30
2023-02-28T03:37:32.800Z,51.80
2023-02-28T03:40:08.296Z,55.20
2023-02-28T03:42:39.506Z,51.20
2023-02-28T03:45:15.188Z,50.50
2023-02-28T03:47:51.768Z,50.70
2023-02-28T03:50:25.231Z,46.20
2023-02-28T03:53:21.967Z,49.10
2023-02-28T03:55:55.216Z,55.20
2023-02-28T03:58:55.362Z,45.90
2023-02-28T04:01:37.090Z,44.30
2023-02-28T04:04:05.660Z,45.60
2023-02-28T04:06:34.889Z,47.40
2023-02-28T04:09:04.848Z,46.50
2023-02-28T04:11:50.632Z,42.90
2023-02-28T04:14:18.861Z,46.10
2023-02-28T04:16:47.017Z,40.00
2023-02-28T04:19:15.580Z,38.70
2023-02-28T04:21:45.194Z,38.70
2023-02-28T04:24:22.659Z,33.50
2023-02-28T04:26:53.249Z,39.00
2023-02-28T04:29:24.703Z,36.00
2023-02-28T04:31:59.058Z,35.50
2023-02-28T04:34:28.574Z,40.00
2023-02-28T04:37:12.041Z,42.40
2023-02-28T04:42:08.976Z,40.50
2023-02-28T04:44:37.359Z,39.50
2023-02-28T04:47:05.233Z,39.10
2023-02-28T04:49:33.046Z,38.60
2023-02-28T04:52:00.930Z,39.60
2023-02-28T04:54:29.506Z,36.20
2023-02-28T04:56:57.372Z,39.30
2023-02-28T04:59:25.789Z,43.00
2023-02-28T05:01:53.875Z,42.40
2023-02-28T05:04:22.602Z,44.30
2023-02-28T05:06:50.735Z,43.80
2023-02-28T05:09:18.521Z,48.10
2023-02-28T05:11:46.313Z,44.60
2023-02-28T05:14:15.434Z,45.30
2023-02-28T05:16:44.301Z,43.80
2023-02-28T05:19:12.170Z,54.60
2023-02-28T05:21:43.050Z,51.80
2023-02-28T05:24:13.041Z,53.80
2023-02-28T05:26:42.879Z,57.20
2023-02-28T05:29:11.288Z,51.50
2023-02-28T05:31:39.595Z,53.40
2023-02-28T05:34:08.036Z,51.80
2023-02-28T05:36:38.118Z,58.10
2023-02-28T05:39:13.874Z,60.20
2023-02-28T05:41:43.351Z,59.00
2023-02-28T05:44:11.842Z,66.60
2023-02-28T05:46:39.702Z,73.40
2023-02-28T05:49:08.080Z,78.80
2023-02-28T05:51:37.657Z,72.40
2023-02-28T05:54:05.716Z,64.70
2023-02-28T05:56:35.696Z,61.30
2023-02-28T05:59:03.542Z,57.70
2023-02-28T06:01:37.976Z,70.20
2023-02-28T06:04:10.988Z,65.00
2023-02-28T06:06:40.612Z,70.60
2023-02-28T06:09:08.579Z,72.80
2023-02-28T06:11:36.411Z,80.20
2023-02-28T06:14:04.995Z,69.30
2023-02-28T06:16:35.520Z,77.90
2023-02-28T06:19:05.003Z,63.60
2023-02-28T06:21:33.186Z,59.90
2023-02-28T06:24:01.277Z,59.80
2023-02-28T06:26:29.305Z,45.30
2023-02-28T06:28:57.739Z,47.70
2023-02-28T06:31:27.114Z,40.20
2023-02-28T06:33:55.061Z,41.90
2023-02-28T06:36:23.567Z,44.80
2023-02-28T06:38:55.797Z,41.90
2023-02-28T06:41:28.689Z,44.60
2023-02-28T06:43:57.510Z,38.40
2023-02-28T06:46:25.376Z,47.10
2023-02-28T06:48:53.270Z,47.30
2023-02-28T06:51:23.392Z,46.20
2023-02-28T06:53:52.366Z,46.30
2023-02-28T06:56:21.454Z,48.70
2023-02-28T06:58:51.844Z,49.50
2023-02-28T07:01:20.985Z,45.30
2023-02-28T07:03:53.520Z,45.10
2023-02-28T07:06:23.739Z,45.30
2023-02-28T07:08:53.799Z,51.10
2023-02-28T07:11:23.819Z,52.30
2023-02-28T07:13:52.090Z,59.00
2023-02-28T07:16:20.210Z,55.60
2023-02-28T07:18:48.820Z,54.10
2023-02-28T07:21:17.102Z,48.60
2023-02-28T07:23:44.978Z,47.90
2023-02-28T07:26:16.855Z,47.10
2023-02-28T07:28:46.658Z,49.90
2023-02-28T07:31:15.421Z,43.90
2023-02-28T07:33:44.156Z,48.90
2023-02-28T07:36:16.446Z,42.20
2023-02-28T07:38:48.347Z,50.20
2023-02-28T07:41:22.138Z,45.60
2023-02-28T07:43:50.642Z,41.50
2023-02-28T07:46:19.545Z,38.90
2023-02-28T07:48:47.398Z,37.00
2023-02-28T07:51:15.416Z,36.30
2023-02-28T07:53:43.626Z,27.60
2023-02-28T07:56:11.887Z,27.80
2023-02-28T07:58:40.913Z,27.00
2023-02-28T08:01:11.534Z,27.80
2023-02-28T08:03:40.434Z,29.80
2023-02-28T08:06:16.276Z,25.30
2023-02-28T08:08:45.476Z,24.90
2023-02-28T08:11:13.370Z,24.90
2023-02-28T08:13:41.233Z,25.40
2023-02-28T08:16:09.013Z,27.00
2023-02-28T08:18:37.440Z,23.60
2023-02-28T08:21:11.891Z,26.70
2023-02-28T08:23:40.070Z,22.40
2023-02-28T08:26:08.544Z,22.00
2023-02-28T08:28:36.474Z,21.50
2023-02-28T08:31:10.203Z,24.20
2023-02-28T08:36:09.747Z,21.50
2023-02-28T08:38:38.894Z,22.10
2023-02-28T08:41:10.003Z,21.70
2023-02-28T08:43:39.303Z,22.60
2023-02-28T08:46:08.320Z,22.60
2023-02-28T08:49:03.433Z,22.40
2023-02-28T08:51:31.616Z,27.10
2023-02-28T08:54:01.829Z,27.50
2023-02-28T08:56:30.016Z,22.10
2023-02-28T08:58:58.911Z,23.30
2023-02-28T09:01:29.951Z,24.30
2023-02-28T09:03:59.133Z,24.10
2023-02-28T09:06:28.715Z,22.50
2023-02-28T09:09:00.662Z,20.30
2023-02-28T09:11:30.150Z,21.00
2023-02-28T09:14:01.258Z,25.10
2023-02-28T09:16:29.168Z,21.30
2023-02-28T09:18:57.253Z,22.30
2023-02-28T09:21:25.243Z,20.20
2023-02-28T09:23:54.081Z,21.60
2023-02-28T09:26:32.480Z,23.80
2023-02-28T09:29:07.766Z,21.30
2023-02-28T09:31:35.605Z,20.30
2023-02-28T09:34:05.234Z,21.80
2023-02-28T09:36:44.854Z,19.50
2023-02-28T09:39:16.552Z,21.30
2023-02-28T09:41:51.170Z,19.70
2023-02-28T09:44:30.382Z,19.60
2023-02-28T09:47:12.413Z,18.70
2023-02-28T09:49:45.013Z,17.90
2023-02-28T09:52:22.652Z,22.60
2023-02-28T09:54:51.025Z,23.30
2023-02-28T09:57:30.854Z,20.80
2023-02-28T10:00:22.835Z,19.60
2023-02-28T10:02:59.284Z,19.80
2023-02-28T10:05:54.661Z,20.10
2023-02-28T10:08:34.221Z,20.80
2023-02-28T10:11:07.708Z,22.30
2023-02-28T10:14:11.583Z,24.10
2023-02-28T10:17:00.721Z,16.30
2023-02-28T10:19:56.803Z,21.30
2023-02-28T10:23:08.239Z,22.90
2023-02-28T10:25:38.189Z,22.20
2023-02-28T10:28:12.721Z,19.90
2023-02-28T10:30:53.163Z,18.90
2023-02-28T10:33:41.870Z,23.20
2023-02-28T10:36:15.324Z,23.20
2023-02-28T10:38:45.168Z,19.10
2023-02-28T10:41:29.723Z,23.10
2023-02-28T10:44:19.029Z,22.20
2023-02-28T10:46:47.165Z,23.00
2023-02-28T10:49:28.041Z,21.00
2023-02-28T10:52:00.745Z,24.10
2023-02-28T10:54:34.988Z,24.40
2023-02-28T10:57:20.257Z,21.60
2023-02-28T10:59:53.839Z,23.00
2023-02-28T11:04:59.326Z,20.30
2023-02-28T11:07:37.343Z,24.30
2023-02-28T11:10:22.720Z,19.90
2023-02-28T11:12:53.221Z,19.70
2023-02-28T11:15:26.933Z,24.70
2023-02-28T11:17:58.599Z,21.20
2023-02-28T11:20:30.607Z,22.10
2023-02-28T11:23:02.040Z,20.70
2023-02-28T11:25:32.817Z,20.00
2023-02-28T11:28:07.375Z,18.40
2023-02-28T11:30:40.619Z,20.70
2023-02-28T11:33:45.971Z,22.60
2023-02-28T11:36:22.126Z,21.90
2023-02-28T11:38:53.351Z,21.70
2023-02-28T11:41:36.041Z,21.50
2023-02-28T11:44:15.249Z,21.00
2023-02-28T11:46:54.542Z,20.10
2023-02-28T11:49:28.426Z,19.60
2023-02-28T11:52:02.320Z,21.20
2023-02-28T11:54:53.716Z,21.50
2023-02-28T11:57:40.080Z,20.90
2023-02-28T12:00:19.744Z,20.10
2023-02-28T12:02:59.866Z,20.50
2023-02-28T12:05:57.339Z,22.00
2023-02-28T12:09:03.237Z,20.00
2023-02-28T12:11:51.877Z,19.80
2023-02-28T12:14:26.089Z,19.30
2023-02-28T12:17:16.905Z,18.90
2023-02-28T12:19:56.477Z,20.10
2023-02-28T12:22:33.447Z,21.40
2023-02-28T12:25:07.362Z,22.40
2023-02-28T12:27:40.457Z,22.20
2023-02-28T12:30:23.389Z,15.60
2023-02-28T12:32:57.896Z,21.20
2023-02-28T12:35:57.087Z,20.10
2023-02-28T12:38:48.591Z,21.90
2023-02-28T12:41:42.202Z,37.40
2023-02-28T12:44:19.172Z,25.60
2023-02-28T12:46:52.062Z,24.10
2023-02-28T12:49:39.477Z,16.50
2023-02-28T12:52:12.218Z,18.10
2023-02-28T12:54:58.525Z,18.80
2023-02-28T12:57:37.996Z,24.60
2023-02-28T13:00:19.321Z,21.30
2023-02-28T13:02:50.748Z,23.20
2023-02-28T13:05:34.386Z,18.00
2023-02-28T13:08:30.114Z,23.40
2023-02-28T13:10:58.243Z,21.80
2023-02-28T13:13:32.984Z,23.40
2023-02-28T13:16:07.131Z,22.60
2023-02-28T13:18:47.448Z,23.20
2023-02-28T13:21:28.655Z,21.70
2023-02-28T13:24:05.825Z,21.10
2023-02-28T13:26:36.732Z,22.80
2023-02-28T13:29:19.995Z,23.10
2023-02-28T13:32:10.081Z,23.30
2023-02-28T13:34:48.557Z,22.20
2023-02-28T13:37:19.266Z,20.90
2023-02-28T13:39:54.422Z,21.50
2023-02-28T13:42:38.412Z,22.10
2023-02-28T13:45:07.647Z,23.20
2023-02-28T13:47:46.130Z,19.90
2023-02-28T13:50:30.219Z,20.90
2023-02-28T13:53:16.585Z,22.80
2023-02-28T13:55:54.226Z,19.90
2023-02-28T13:58:55.697Z,17.80
2023-02-28T14:01:43.112Z,21.90
2023-02-28T14:04:32.455Z,21.80
2023-02-28T14:07:03.454Z,21.80
2023-02-28T14:09:36.333Z,21.40
2023-02-28T14:12:41.916Z,17.10
2023-02-28T14:15:50.622Z,17.30
2023-02-28T14:18:26.948Z,21.90
2023-02-28T14:21:17.903Z,22.70
2023-02-28T14:24:14.385Z,20.80
2023-02-28T14:26:59.728Z,22.00
2023-02-28T14:29:30.951Z,19.20
2023-02-28T14:32:23.830Z,18.80
2023-02-28T14:35:03.753Z,18.50
2023-02-28T14:37:37.573Z,18.40
2023-02-28T14:40:15.848Z,22.20
2023-02-28T14:42:55.288Z,20.40
2023-02-28T14:45:24.307Z,21.70
2023-02-28T14:47:53.918Z,25.20
2023-02-28T14:50:25.595Z,23.80
2023-02-28T14:52:56.155Z,21.60
2023-02-28T14:55:31.526Z,21.60
2023-02-28T14:58:07.313Z,21.80
2023-02-28T15:00:47.479Z,20.20
2023-02-28T15:03:40.694Z,23.60
2023-02-28T15:09:09.524Z,18.70
2023-02-28T15:11:38.375Z,19.50
2023-02-28T15:14:06.358Z,19.70
2023-02-28T15:16:41.391Z,22.00
2023-02-28T15:19:20.523Z,23.20
2023-02-28T15:21:55.384Z,24.20
2023-02-28T15:24:51.072Z,23.90
2023-02-28T15:27:25.559Z,21.70
2023-02-28T15:30:00.557Z,24.00
2023-02-28T15:32:32.301Z,25.10
2023-02-28T15:35:23.887Z,21.90
2023-02-28T15:38:02.193Z,21.00
2023-02-28T15:40:43.247Z,26.70
2023-02-28T15:43:16.669Z,25.80
2023-02-28T15:46:02.543Z,25.70
2023-02-28T15:48:38.219Z,31.20
2023-02-28T15:51:14.420Z,29.20
2023-02-28T15:53:51.219Z,91.60
2023-02-28T15:56:26.932Z,44.30
2023-02-28T15:59:03.099Z,34.00
2023-02-28T16:01:34.370Z,39.50
2023-02-28T16:04:16.724Z,30.80
2023-02-28T16:07:00.630Z,36.10
2023-02-28T16:09:30.793Z,40.30
2023-02-28T16:12:04.279Z,47.10
2023-02-28T16:14:33.143Z,40.80
2023-02-28T16:17:25.121Z,36.20
2023-02-28T16:19:54.207Z,39.40
2023-02-28T16:22:40.113Z,36.70
2023-02-28T16:25:12.815Z,36.30
2023-02-28T16:27:42.095Z,38.40
2023-02-28T16:30:20.362Z,38.80
2023-02-28T16:32:50.232Z,40.20
2023-02-28T16:35:20.875Z,45.20
2023-02-28T16:37:49.466Z,55.30
2023-02-28T16:40:24.075Z,61.20
2023-02-28T16:42:54.970Z,63.10
2023-02-28T16:45:26.183Z,70.40
2023-02-28T16:47:55.178Z,66.00
2023-02-28T16:50:28.727Z,72.10
2023-02-28T16:52:57.323Z,70.10
2023-02-28T16:55:27.292Z,80.40
2023-02-28T16:57:58.299Z,78.80
2023-02-28T17:00:28.745Z,85.50
2023-02-28T17:02:57.182Z,90.50
2023-02-28T17:05:25.236Z,102.70
2023-02-28T17:07:53.095Z,127.40
2023-02-28T17:10:26.501Z,133.90
2023-02-28T17:12:58.371Z,146.70
2023-02-28T17:15:32.271Z,137.40
2023-02-28T17:18:00.383Z,121.50
2023-02-28T17:20:28.248Z,118.30
2023-02-28T17:22:57.645Z,113.80
2023-02-28T17:25:25.923Z,100.40
2023-02-28T17:27:54.303Z,101.60
2023-02-28T17:30:28.204Z,111.60
2023-02-28T17:32:57.588Z,183.60
2023-02-28T17:35:25.513Z,305.20
2023-02-28T17:37:53.780Z,296.70
2023-02-28T17:40:24.916Z,292.60
2023-02-28T17:42:53.491Z,349.20
2023-02-28T17:45:21.461Z,356.70
2023-02-28T17:47:51.345Z,386.60
2023-02-28T17:50:22.118Z,375.80
2023-02-28T17:52:51.584Z,368.60
2023-02-28T17:55:22.678Z,336.80
2023-02-28T17:57:50.578Z,300.50
2023-02-28T18:00:19.478Z,283.10
2023-02-28T18:02:47.323Z,218.30
2023-02-28T18:05:16.001Z,203.40
2023-02-28T18:07:44.004Z,192.20
2023-02-28T18:10:20.478Z,157.70
2023-02-28T18:12:50.873Z,143.40
2023-02-28T18:15:22.411Z,141.10
2023-02-28T18:17:50.980Z,123.90
2023-02-28T18:20:19.759Z,118.60
2023-02-28T18:22:47.744Z,115.70
2023-02-28T18:25:17.163Z,113.40
2023-02-28T18:27:58.431Z,120.10
2023-02-28T18:30:32.030Z,193.80
2023-02-28T18:33:01.428Z,206.70
2023-02-28T18:35:37.175Z,258.80
2023-02-28T18:38:17.003Z,272.80
2023-02-28T18:40:56.387Z,261.20
2023-02-28T18:43:24.248Z,321.50
2023-02-28T18:45:52.436Z,349.10
2023-02-28T18:48:23.420Z,388.10
2023-02-28T18:50:51.659Z,393.00
2023-02-28T18:53:20.426Z,404.00
2023-02-28T18:55:48.251Z,405.80
2023-02-28T18:58:16.097Z,388.80
2023-02-28T19:00:44.551Z,356.10
2023-02-28T19:03:12.977Z,371.80
2023-02-28T19:05:40.838Z,380.70
2023-02-28T19:08:09.095Z,396.40
2023-02-28T19:10:40.332Z,388.00
2023-02-28T19:13:08.248Z,375.10
2023-02-28T19:15:36.558Z,363.50
2023-02-28T19:18:04.539Z,364.10
2023-02-28T19:20:32.328Z,348.60
2023-02-28T19:23:01.434Z,342.10
2023-02-28T19:25:29.431Z,345.80
2023-02-28T19:27:57.399Z,353.80
2023-02-28T19:30:26.176Z,352.30
2023-02-28T19:32:54.075Z,354.40
2023-02-28T19:35:21.982Z,351.50
2023-02-28T19:37:50.591Z,334.10
2023-02-28T19:40:18.661Z,352.10
2023-02-28T19:42:47.200Z,349.70
2023-02-28T19:45:15.531Z,344.00
2023-02-28T19:47:44.736Z,365.90
2023-02-28T19:50:12.689Z,342.70
2023-02-28T19:55:14.018Z,335.80
2023-02-28T19:57:42.984Z,321.60
2023-02-28T20:00:14.239Z,297.60
2023-02-28T20:02:42.579Z,291.50
2023-02-28T20:05:10.787Z,294.90
2023-02-28T20:07:38.537Z,293.60
2023-02-28T20:10:07.219Z,309.90
2023-02-28T20:12:35.787Z,282.10
2023-02-28T20:15:03.990Z,255.30
2023-02-28T20:17:31.873Z,296.00
2023-02-28T20:19:59.707Z,272.40
2023-02-28T20:22:27.553Z,260.80
2023-02-28T20:24:55.788Z,241.70
2023-02-28T20:27:24.110Z,241.70
2023-02-28T20:29:53.328Z,238.10
2023-02-28T20:32:21.233Z,246.60
2023-02-28T20:34:49.019Z,248.20
2023-02-28T20:37:16.841Z,230.20
2023-02-28T20:39:45.278Z,231.00
2023-02-28T20:42:13.571Z,214.30
2023-02-28T20:44:41.401Z,245.10
2023-02-28T20:47:09.183Z,223.60
2023-02-28T20:49:36.984Z,232.30
2023-02-28T20:52:04.884Z,222.70
2023-02-28T20:54:36.131Z,230.60
2023-02-28T20:57:04.713Z,245.70
2023-02-28T20:59:32.590Z,241.00
2023-02-28T21:02:00.355Z,235.00
2023-02-28T21:04:28.447Z,231.20
2023-02-28T21:06:56.528Z,222.20
2023-02-28T21:09:24.877Z,216.50
2023-02-28T21:11:53.935Z,243.10
2023-02-28T21:14:21.851Z,228.70
2023-02-28T21:16:49.729Z,236.50
2023-02-28T21:19:18.822Z,234.20
2023-02-28T21:21:48.133Z,237.10
2023-02-28T21:24:19.329Z,225.30
2023-02-28T21:26:48.547Z,207.00
2023-02-28T21:29:16.708Z,224.20
2023-02-28T21:31:44.658Z,237.70
2023-02-28T21:34:13.693Z,265.80
2023-02-28T21:36:45.892Z,280.60
2023-02-28T21:39:21.874Z,273.00
2023-02-28T21:41:50.492Z,251.30
2023-02-28T21:44:18.879Z,263.90
2023-02-28T21:46:49.110Z,240.90
2023-02-28T21:49:17.708Z,253.60
2023-02-28T21:51:46.144Z,223.00
2023-02-28T21:54:14.697Z,222.80
2023-02-28T21:56:42.618Z,235.30
2023-02-28T21:59:11.181Z,246.20
2023-02-28T22:01:44.345Z,251.60
2023-02-28T22:04:22.719Z,247.50
2023-02-28T22:06:54.436Z,219.20
2023-02-28T22:09:22.278Z,242.60
2023-02-28T22:11:50.560Z,224.50
2023-02-28T22:14:18.847Z,234.40
2023-02-28T22:16:52.580Z,230.00
2023-02-28T22:19:23.722Z,246.90
2023-02-28T22:21:53.896Z,228.90
2023-02-28T22:24:24.660Z,247.20
2023-02-28T22:26:53.539Z,278.90
2023-02-28T22:29:21.367Z,323.60
2023-02-28T22:31:49.341Z,328.70
2023-02-28T22:34:17.962Z,347.00
2023-02-28T22:36:45.749Z,369.90
2023-02-28T22:39:13.672Z,361.70
2023-02-28T22:41:41.983Z,367.30
2023-02-28T22:44:11.128Z,325.10
2023-02-28T22:46:39.031Z,343.40
2023-02-28T22:49:07.414Z,329.80
2023-02-28T22:51:35.392Z,275.10
2023-02-28T22:54:04.020Z,253.30
2023-02-28T22:56:32.781Z,236.30
2023-02-28T22:59:01.662Z,244.00
2023-02-28T23:01:32.729Z,220.80
2023-02-28T23:04:02.044Z,226.30
2023-02-28T23:06:33.520Z,217.50
2023-02-28T23:09:08.241Z,209.20
2023-02-28T23:11:41.044Z,199.50
2023-02-28T23:14:12.940Z,184.70
2023-02-28T23:16:44.093Z,170.00
2023-02-28T23:19:16.100Z,162.30
2023-02-28T23:21:45.377Z,155.80
2023-02-28T23:24:15.920Z,145.60
2023-02-28T23:26:47.246Z,141.90
2023-02-28T23:29:17.624Z,143.00
2023-02-28T23:31:45.639Z,160.00
2023-02-28T23:34:14.458Z,173.70
2023-02-28T23:36:46.350Z,167.10
2023-02-28T23:39:17.453Z,157.40
2023-02-28T23:41:46.878Z,164.90
2023-02-28T23:44:17.143Z,159.50
2023-02-28T23:46:46.675Z,158.70
2023-02-28T23:49:16.594Z,200.70
2023-02-28T23:51:44.366Z,198.30
2023-02-28T23:54:12.935Z,178.20
2023-02-28T23:56:41.333Z,163.70
2023-02-28T23:59:09.247Z,180.00
